logo
Search for airport 
image banner adimage banner adimage banner ad
image banner ad

CYQY - J.A. Douglas Mccurdy

Located in Sydney, Canada

ICAO - CYQY, IATA - YQY

Data provided by Airmate  

General information

Coordinates: N46°9'41" W60°2'53"
Elevation is 203 feet MSL.
Magnetic variation is -18.95° East
View others Airports in Nova Scotia

Operational data

Special qualification required
Current time UTC:
Current local time:
Weather
METAR: CYQY 230400Z 30008KT 15SM FEW050 SCT240 M02/M08 A3006 RMK SC1CI2 SLP184
TAF: TAF CYQY 222341Z 2300/2312 33012KT P6SM FEW060 SCT250 FM230300 30008KT P6SM SKC RMK NXT FCST BY 230600Z
View NOTAMs / SUP AIP / TFR affecting this airport [VIEW]
Communications frequencies: [VIEW]

Runways:

RWY identifierQFULength (ft)Width (ft)SurfaceLDA (ft)
0646°7070200ASPH7070
24226°7070200ASPH7070
18165°5997150ASPH5997
36345°5997150ASPH5997

Airport contact information

Address: Sydney Canada

Satellite view of CYQY